Data for 11/04/2005

Time Sea-Level Adjusted Pressure Absolute Pressure Temperature Relative Humidity Dew Point   
(mb) (inHg) (mb) (inHg) (C) (F) (%) (C) (F)
00:05 1006 29.71 835 24.66 2 35.5 70 -2.9 26.8
00:10 1006 29.71 835 24.66 2.2 35.9 70 -2.7 27.2
00:15 1006 29.71 835 24.66 2.1 35.9 70 -2.7 27.1
00:20 1006 29.71 835 24.66 2.2 36 71 -2.6 27.3
00:25 1006 29.71 835 24.66 2.6 36.6 62 -4 24.8
00:30 1006 29.71 835 24.66 3.4 38.1 66 -2.4 27.7
00:35 1006 29.71 835 24.66 3 37.4 63 -3.4 25.8
00:40 1006 29.71 835 24.66 3.5 38.3 59 -3.7 25.3
00:45 1006 29.71 835 24.66 4.1 39.3 58 -3.4 26
00:50 1006 29.71 835 24.66 4.2 39.6 59 -3.1 26.4
00:55 1006 29.71 835 24.66 4.2 39.5 63 -2.3 27.8
01:00 1006 29.71 835 24.66 3.1 37.6 69 -2 28.3
01:05 1006 29.71 835 24.66 2.8 37.1 66 -3 26.6
01:10 1006 29.71 835 24.66 3.3 38 64 -2.9 26.8
01:15 1006 29.71 835 24.66 3.7 38.7 62 -2.8 27
01:20 1006 29.71 835 24.66 3.9 39.1 60 -3 26.6
01:25 1006 29.71 835 24.66 4.2 39.6 59 -3.1 26.5
01:30 1006 29.71 835 24.66 4.3 39.7 59 -2.9 26.8
01:35 1006 29.71 835 24.66 4.3 39.7 60 -2.7 27.1
01:40 1006 29.71 835 24.66 4.3 39.7 60 -2.7 27.1
01:45 1006 29.71 835 24.66 4.1 39.5 61 -2.7 27.1
01:50 1006 29.71 835 24.66 4.2 39.5 61 -2.6 27.4
01:55 1006 29.71 835 24.66 4.2 39.5 60 -2.9 26.8
02:00 1006 29.71 835 24.66 4.2 39.5 61 -2.6 27.4
02:05 1006 29.71 835 24.66 4 39.2 62 -2.6 27.3
02:10 1006 29.71 835 24.66 3.5 38.4 68 -1.8 28.8
02:15 1006 29.71 835 24.66 3 37.5 69 -2 28.3
02:20 1006 29.71 835 24.66 2.8 37 73 -1.6 29.1
02:25 1006 29.71 835 24.66 2.5 36.4 74 -1.8 28.8
02:30 1006 29.71 835 24.66 2.4 36.3 74 -1.8 28.7
02:35 1006 29.71 835 24.66 2.4 36.3 74 -1.8 28.7
02:40 1006 29.71 835 24.66 2.4 36.2 75 -1.6 29.1
02:45 1006 29.71 835 24.66 2.2 36 76 -1.6 29.2
02:50 1006 29.71 835 24.66 2.1 35.8 73 -2.3 27.9
02:55 1006 29.71 835 24.66 2.4 36.3 73 -2 28.4
03:00 1006 29.71 835 24.66 2.4 36.4 72 -2.1 28.2
03:05 1006 29.71 835 24.66 2.5 36.6 73 -1.9 28.6
03:10 1006 29.71 835 24.66 2.6 36.6 75 -1.4 29.6
03:15 1006 29.71 835 24.66 2.3 36.1 78 -1.2 29.9
03:20 1006 29.71 835 24.66 2.1 35.7 77 -1.6 29.1
03:25 1006 29.71 835 24.66 2.3 36.1 77 -1.3 29.6
03:30 1006 29.71 835 24.66 2.5 36.5 76 -1.3 29.7
03:35 1006 29.71 835 24.66 2.5 36.5 75 -1.6 29.2
03:40 1006 29.71 835 24.66 2.3 36.2 78 -1.2 29.8
03:45 1005 29.68 835 24.66 2.1 35.8 79 -1.2 29.8
03:50 1005 29.68 835 24.66 2 35.5 79 -1.2 29.8
03:55 1006 29.71 835 24.66 2 35.6 79 -1.3 29.7
04:00 1006 29.71 835 24.66 2 35.7 78 -1.3 29.6
04:05 1006 29.71 835 24.66 2.3 36.1 78 -1.2 29.9
04:10 1006 29.71 835 24.66 2.2 35.9 80 -1 30.3
04:15 1005 29.68 835 24.66 2 35.6 81 -1 30.2
04:20 1005 29.68 835 24.66 1.9 35.4 81 -1 30.1
04:25 1005 29.68 835 24.66 2 35.6 80 -1.1 30.1
04:30 1006 29.71 835 24.66 2.1 35.7 78 -1.4 29.5
04:35 1006 29.71 835 24.66 2.2 35.9 79 -1.2 29.9
04:40 1006 29.71 835 24.66 2.2 35.9 79 -1.1 30
04:45 1006 29.71 835 24.66 2.2 35.9 79 -1.1 30
04:50 1006 29.71 835 24.66 2.1 35.8 80 -1.1 30.1
04:55 1006 29.71 835 24.66 2.1 35.8 79 -1.1 30
05:00 1006 29.71 835 24.66 2.2 35.9 79 -1.2 29.9
05:05 1006 29.71 835 24.66 2.1 35.9 79 -1.2 29.9
05:10 1006 29.71 835 24.66 2.2 35.9 78 -1.3 29.7
05:15 1006 29.71 835 24.66 2.3 36.1 78 -1.2 29.8
05:20 1006 29.71 835 24.66 2.5 36.5 76 -1.2 29.8
05:25 1006 29.71 835 24.66 2.6 36.7 76 -1.1 29.9
05:30 1006 29.71 835 24.66 2.6 36.7 77 -1 30.1
05:35 1006 29.71 835 24.66 2.7 36.8 76 -1.1 30.1
05:40 1006 29.71 835 24.66 2.6 36.7 78 -0.9 30.4
05:45 1006 29.71 835 24.66 2.3 36.2 79 -0.9 30.3
05:50 1006 29.71 836 24.69 2.2 36 79 -1 30.2
05:55 1006 29.71 836 24.69 2.2 36 80 -0.9 30.4
06:00 1006 29.71 836 24.69 2.1 35.7 79 -1.2 29.9
06:05 1007 29.74 836 24.69 2.3 36.1 79 -1 30.2
06:10 1007 29.74 836 24.69 2.2 36 81 -0.7 30.7
06:15 1007 29.74 836 24.69 2.2 36 75 -1.7 28.9
06:20 1007 29.74 836 24.69 2.8 37 75 -1.3 29.7
06:25 1007 29.74 836 24.69 2.8 37 76 -1.1 30
06:30 1007 29.74 836 24.69 2.8 37 74 -1.4 29.6
06:35 1007 29.74 836 24.69 2.9 37.3 71 -1.7 28.9
06:40 1007 29.74 836 24.69 3.2 37.7 72 -1.4 29.4
06:45 1007 29.74 836 24.69 3.2 37.7 72 -1.4 29.4
06:50 1007 29.74 836 24.69 3.1 37.5 72 -1.4 29.4
06:55 1007 29.74 836 24.69 3 37.5 71 -1.6 29.1
07:00 1007 29.74 837 24.72 3.1 37.6 71 -1.6 29.1
07:05 1007 29.74 837 24.72 3 37.5 72 -1.6 29.2
07:10 1007 29.74 837 24.72 3 37.4 73 -1.3 29.7
07:15 1008 29.77 837 24.72 2.8 37.1 74 -1.4 29.5
07:20 1008 29.77 837 24.72 2.7 36.9 76 -1 30.1
07:25 1008 29.77 837 24.72 2.6 36.6 75 -1.3 29.6
07:30 1008 29.77 837 24.72 2.9 37.2 73 -1.5 29.3
07:35 1008 29.77 837 24.72 3.1 37.6 70 -1.9 28.6
07:40 1008 29.77 838 24.75 3.3 37.9 70 -1.8 28.8
07:45 1008 29.77 838 24.75 3.2 37.8 71 -1.5 29.3
07:50 1009 29.8 838 24.75 3.2 37.7 73 -1.2 29.8
07:55 1008 29.77 838 24.75 2.9 37.2 75 -1.2 29.9
08:00 1008 29.77 838 24.75 2.5 36.5 79 -0.9 30.4
08:05 1008 29.77 838 24.75 2.1 35.8 80 -1 30.2
08:10 1008 29.77 838 24.75 2.1 35.8 79 -1.1 30.1
08:15 1008 29.77 838 24.75 2 35.6 80 -1.2 29.9
08:20 1009 29.8 838 24.75 2 35.6 80 -1.1 30
08:25 1009 29.8 838 24.75 2 35.5 81 -0.9 30.3
08:30 1009 29.8 838 24.75 1.8 35.3 82 -0.9 30.5
08:35 1009 29.8 838 24.75 1.9 35.4 83 -0.8 30.6
08:40 1009 29.8 838 24.75 1.9 35.4 83 -0.7 30.7
08:45 1009 29.8 838 24.75 2.2 35.9 75 -1.9 28.6
08:50 1009 29.8 838 24.75 2.7 36.9 72 -1.9 28.6
08:55 1009 29.8 838 24.75 3.1 37.6 70 -1.8 28.8
09:00 1009 29.8 838 24.75 3 37.5 73 -1.4 29.6
09:05 1009 29.8 838 24.75 2.8 37 73 -1.6 29.1
09:10 1009 29.8 838 24.75 3 37.3 66 -2.7 27.1
09:15 1009 29.8 838 24.75 3.7 38.6 64 -2.6 27.4
09:20 1009 29.8 838 24.75 4.1 39.3 61 -2.9 26.9
09:25 1009 29.8 838 24.75 4.3 39.7 57 -3.5 25.7
09:30 1009 29.8 838 24.75 4.1 39.5 58 -3.5 25.7
09:35 1009 29.8 838 24.75 4.3 39.7 56 -3.7 25.4
09:40 1009 29.8 838 24.75 4.6 40.2 54 -3.8 25.1
09:45 1009 29.8 838 24.75 5.4 41.7 48 -4.9 23.2
09:50 1009 29.8 838 24.75 5.6 42.2 48 -4.5 23.8
09:55 1009 29.8 838 24.75 5.7 42.2 45 -5.4 22.3
10:00 1009 29.8 839 24.78 5.5 42 47 -4.9 23.2
10:05 1009 29.8 839 24.78 5.4 41.8 45 -5.6 21.9
10:10 1009 29.8 839 24.78 5.4 41.7 45 -5.6 21.9
10:15 1009 29.8 839 24.78 5.3 41.6 46 -5.3 22.5
10:20 1009 29.8 839 24.78 5.5 42 45 -5.5 22.1
10:25 1009 29.8 839 24.78 5.7 42.2 45 -5.5 22.1
10:30 1010 29.83 839 24.78 5.8 42.4 45 -5.4 22.4
10:35 1010 29.83 839 24.78 5.8 42.4 43 -5.8 21.5
10:40 1010 29.83 839 24.78 5.7 42.3 41 -6.6 20.1
10:45 1010 29.83 839 24.78 5.7 42.2 40 -6.9 19.6
10:50 1010 29.83 839 24.78 5.8 42.5 41 -6.3 20.6
10:55 1010 29.83 839 24.78 5.9 42.6 39 -7 19.4
11:00 1010 29.83 839 24.78 5.6 42.2 38 -7.6 18.4
11:05 1010 29.83 839 24.78 5.5 41.8 40 -7.1 19.2
11:10 1010 29.83 839 24.78 5.5 41.9 38 -7.8 18
11:15 1010 29.83 839 24.78 5.4 41.8 39 -7.5 18.6
11:20 1010 29.83 839 24.78 5.4 41.6 40 -7 19.3
11:25 1010 29.83 839 24.78 5.1 41.2 40 -7.4 18.7
11:30 1010 29.83 839 24.78 5.1 41.1 44 -6.3 20.7
11:35 1010 29.83 839 24.78 5 40.9 43 -6.6 20.1
11:40 1010 29.83 839 24.78 4.9 40.8 43 -6.6 20.1
11:45 1010 29.83 839 24.78 5.1 41.1 43 -6.4 20.4
11:50 1010 29.83 839 24.78 5.2 41.3 44 -6.2 20.8
11:55 1010 29.83 839 24.78 5.1 41.2 42 -6.9 19.6
12:00 1010 29.83 839 24.78 5.1 41.3 43 -6.4 20.5
12:05 1010 29.83 839 24.78 5.1 41.2 42 -6.9 19.7
12:10 1010 29.83 839 24.78 5 41.1 42 -6.7 19.9
12:15 1010 29.83 839 24.78 4.4 39.9 50 -5.3 22.5
12:20 1010 29.83 839 24.78 3.8 38.8 49 -5.9 21.3
12:25 1010 29.83 839 24.78 3.7 38.6 53 -5.1 22.7
12:30 1010 29.83 839 24.78 3.1 37.7 55 -4.9 23.1
12:35 1010 29.83 839 24.78 2.6 36.7 58 -4.9 23.2
12:40 1010 29.83 839 24.78 2.6 36.8 60 -4.2 24.4
12:45 1010 29.83 839 24.78 2.6 36.6 60 -4.4 24.1
12:50 1010 29.83 839 24.78 3.1 37.6 55 -5.2 22.7
12:55 1010 29.83 839 24.78 3.9 39 48 -6.1 21
13:00 1010 29.83 839 24.78 4.3 39.7 48 -5.8 21.6
13:05 1010 29.83 839 24.78 4.5 40.2 47 -5.8 21.5
13:10 1010 29.83 839 24.78 4.5 40.1 48 -5.6 21.9
13:15 1010 29.83 839 24.78 4.5 40.1 47 -5.8 21.6
13:20 1010 29.83 839 24.78 4.6 40.4 47 -5.8 21.5
13:25 1010 29.83 839 24.78 4.6 40.3 46 -6.1 21
13:30 1010 29.83 839 24.78 4.7 40.5 45 -6.3 20.7
13:35 1010 29.83 839 24.78 4.7 40.4 45 -6.3 20.7
13:40 1010 29.83 839 24.78 4.8 40.6 44 -6.5 20.3
13:45 1010 29.83 839 24.78 4.8 40.7 44 -6.5 20.3
13:50 1010 29.83 840 24.81 4.4 39.9 47 -6.1 21.1
13:55 1011 29.85 840 24.81 3.9 39.1 44 -7.3 18.9
14:00 1011 29.85 840 24.81 3.5 38.3 46 -6.9 19.5
14:05 1011 29.85 840 24.81 3.3 38 56 -4.6 23.8
14:10 1010 29.83 840 24.81 3.1 37.5 55 -5.2 22.6
14:15 1010 29.83 840 24.81 3.3 37.9 50 -6.3 20.7
14:20 1010 29.83 840 24.81 3.8 38.9 46 -6.7 20
14:25 1010 29.83 840 24.81 4.3 39.7 42 -7.6 18.3
14:30 1010 29.83 840 24.81 4.4 39.9 45 -6.5 20.3
14:35 1010 29.83 840 24.81 4.3 39.8 45 -6.7 20
14:40 1010 29.83 840 24.81 4.1 39.5 44 -7 19.4
14:45 1010 29.83 840 24.81 4.3 39.7 46 -6.5 20.4
14:50 1010 29.83 840 24.81 4.1 39.4 56 -3.8 25.2
14:55 1011 29.85 840 24.81 3.4 38.2 58 -4.1 24.5
15:00 1011 29.85 840 24.81 3.3 38 58 -4.2 24.4
15:05 1011 29.85 840 24.81 3.2 37.8 58 -4.2 24.4
15:10 1011 29.85 840 24.81 3.1 37.5 58 -4.3 24.2
15:15 1011 29.85 840 24.81 3.4 38.1 54 -4.9 23.1
15:20 1011 29.85 840 24.81 3.7 38.7 52 -5.2 22.6
15:25 1011 29.85 840 24.81 3.9 39.1 52 -5.1 22.9
15:30 1011 29.85 840 24.81 3.6 38.5 55 -4.5 23.9
15:35 1011 29.85 841 24.83 3.1 37.6 65 -2.8 26.9
15:40 1011 29.85 841 24.83 1.9 35.5 70 -2.9 26.8
15:45 1011 29.85 841 24.83 1.9 35.3 65 -4 24.8
15:50 1011 29.85 840 24.81 2.1 35.7 61 -4.7 23.5
15:55 1011 29.85 840 24.81 2.3 36.1 60 -4.6 23.7
16:00 1011 29.85 840 24.81 2.6 36.6 61 -4.2 24.4
16:05 1011 29.85 840 24.81 2.2 35.9 65 -3.8 25.2
16:10 1011 29.85 840 24.81 1.6 35 71 -3.1 26.4
16:15 1011 29.85 840 24.81 1.3 34.4 69 -3.7 25.3
16:20 1011 29.85 840 24.81 1.5 34.7 65 -4.5 24
16:25 1011 29.85 840 24.81 2.1 35.9 52 -6.8 19.7
16:30 1011 29.85 840 24.81 2.8 37 50 -6.7 19.9
16:35 1011 29.85 840 24.81 3 37.4 49 -6.5 20.2
16:40 1011 29.85 840 24.81 3.2 37.7 47 -7 19.4
16:45 1011 29.85 840 24.81 3.2 37.8 46 -7.3 18.9
16:50 1011 29.85 840 24.81 3.4 38.1 42 -8.3 17
16:55 1011 29.85 840 24.81 3.5 38.4 43 -7.8 18
17:00 1011 29.85 840 24.81 3.4 38.2 44 -7.8 18
17:05 1011 29.85 840 24.81 3.3 38 46 -7.3 18.9
17:10 1011 29.85 840 24.81 3.3 37.9 46 -7.2 19.1
17:15 1011 29.85 840 24.81 3.2 37.7 47 -7 19.4
17:20 1011 29.85 840 24.81 2.9 37.2 55 -5.2 22.7
17:25 1011 29.85 840 24.81 2.1 35.8 62 -4.5 24
17:30 1011 29.85 840 24.81 1.6 34.8 64 -4.6 23.8
17:35 1011 29.85 840 24.81 1.5 34.6 63 -4.7 23.5
17:40 1011 29.85 840 24.81 1.6 34.8 63 -4.7 23.5
17:45 1011 29.85 840 24.81 1.6 34.9 62 -4.9 23.2
17:50 1011 29.85 840 24.81 1.7 35.1 61 -4.9 23.1
17:55 1011 29.85 840 24.81 1.7 35.1 63 -4.5 23.9
18:00 1011 29.85 840 24.81 1.4 34.6 65 -4.4 24
18:05 1011 29.85 840 24.81 1.3 34.3 64 -4.8 23.4
18:10 1011 29.85 840 24.81 1.6 34.8 59 -5.6 22
18:15 1010 29.83 840 24.81 2.1 35.8 57 -5.6 21.9
18:20 1010 29.83 840 24.81 2.2 36 58 -5.2 22.6
18:25 1010 29.83 840 24.81 2 35.7 62 -4.4 24
18:30 1011 29.85 840 24.81 1.6 34.9 66 -4.1 24.6
18:35 1010 29.83 840 24.81 1.2 34.2 67 -4.2 24.5
18:40 1010 29.83 840 24.81 0.8 33.5 67 -4.5 23.8
18:45 1010 29.83 840 24.81 1.1 34 62 -5.3 22.4
18:50 1010 29.83 840 24.81 1.3 34.3 62 -5.2 22.6
18:55 1010 29.83 840 24.81 1.4 34.5 65 -4.6 23.8
19:00 1010 29.83 840 24.81 0.9 33.7 69 -4.1 24.5
19:05 1011 29.85 840 24.81 0.5 32.9 72 -3.9 24.9
19:10 1011 29.85 840 24.81 0.1 32.1 74 -4 24.9
19:15 1011 29.85 840 24.81 -0.1 31.9 73 -4.3 24.3
19:20 1011 29.85 840 24.81 -0 31.9 74 -4.1 24.6
19:25 1011 29.85 840 24.81 -0 32 72 -4.5 23.9
19:30 1011 29.85 840 24.81 0.1 32.1 70 -4.7 23.6
19:35 1011 29.85 840 24.81 0.3 32.5 68 -4.9 23.3
19:40 1011 29.85 840 24.81 0.4 32.6 66 -5.2 22.6
19:45 1011 29.85 840 24.81 0.4 32.7 67 -5 22.9
19:50 1011 29.85 840 24.81 0.3 32.5 69 -4.8 23.4
19:55 1011 29.85 840 24.81 0.2 32.3 68 -5 23.1
20:00 1011 29.85 840 24.81 0.2 32.4 70 -4.6 23.7
20:05 1010 29.83 840 24.81 0.1 32.1 71 -4.6 23.8
20:10 1011 29.85 840 24.81 0.1 32.3 70 -4.7 23.6
20:15 1011 29.85 840 24.81 0.4 32.7 69 -4.7 23.6
20:20 1011 29.85 840 24.81 0.7 33.2 68 -4.5 23.9
20:25 1011 29.85 840 24.81 0.5 32.9 70 -4.3 24.2
20:30 1011 29.85 840 24.81 0.4 32.7 70 -4.4 24.1
20:35 1011 29.85 840 24.81 0.3 32.5 71 -4.3 24.3
20:40 1011 29.85 840 24.81 -0 32 72 -4.4 24.1
20:45 1011 29.85 840 24.81 -0.2 31.6 75 -4.2 24.4
20:50 1011 29.85 840 24.81 -0.4 31.3 74 -4.4 24.1
20:55 1011 29.85 840 24.81 -0.3 31.5 74 -4.4 24.2
21:00 1011 29.85 840 24.81 -0.3 31.4 74 -4.4 24.1
21:05 1011 29.85 840 24.81 -0 31.9 72 -4.5 23.9
21:10 1011 29.85 840 24.81 0 32.1 73 -4.3 24.3
21:15 1011 29.85 840 24.81 0.1 32.1 72 -4.3 24.2
21:20 1011 29.85 840 24.81 -0.1 31.9 73 -4.4 24
21:25 1011 29.85 840 24.81 -0 32 74 -4.2 24.5
21:30 1011 29.85 840 24.81 -0.1 31.8 72 -4.5 23.9
21:35 1011 29.85 840 24.81 -0 32 71 -4.6 23.8
21:40 1011 29.85 840 24.81 -0.3 31.5 73 -4.6 23.7
21:45 1011 29.85 840 24.81 -0.3 31.4 74 -4.3 24.2
21:50 1011 29.85 840 24.81 -0.5 31 76 -4.2 24.4
21:55 1011 29.85 840 24.81 -0.8 30.6 77 -4.3 24.3
22:00 1011 29.85 840 24.81 -0.9 30.4 76 -4.6 23.8
22:05 1011 29.85 840 24.81 -0.8 30.5 74 -4.9 23.1
22:10 1011 29.85 840 24.81 -0.6 31 66 -6.1 21.1
22:15 1011 29.85 840 24.81 0.1 32.1 60 -6.8 19.7
22:20 1011 29.85 840 24.81 0.5 33 58 -6.7 19.9
22:25 1011 29.85 840 24.81 0.8 33.4 60 -6.2 20.9
22:30 1011 29.85 840 24.81 0.7 33.3 58 -6.7 20
22:35 1011 29.85 840 24.81 0.9 33.5 58 -6.5 20.2
22:40 1011 29.85 840 24.81 0.4 32.8 61 -6.1 20.9
22:45 1011 29.85 840 24.81 -0.1 31.9 57 -7.6 18.3
22:50 1011 29.85 840 24.81 0.2 32.4 58 -7.2 19.1
22:55 1011 29.85 840 24.81 0.4 32.8 53 -7.9 17.7
23:00 1011 29.85 840 24.81 0.9 33.6 50 -8.4 16.9
23:05 1011 29.85 840 24.81 1.1 34 50 -8.2 17.2
23:10 1011 29.85 840 24.81 0.6 33 57 -7 19.3
23:15 1011 29.85 840 24.81 -0.1 31.9 60 -7 19.4
23:20 1011 29.85 840 24.81 -0.6 30.9 62 -6.9 19.6
23:25 1011 29.85 840 24.81 -1 30.2 64 -6.9 19.6
23:30 1011 29.85 840 24.81 -1.2 29.9 64 -7.1 19.2
23:35 1011 29.85 840 24.81 -1 30.2 64 -7 19.4
23:40 1011 29.85 840 24.81 -1.1 30.1 65 -6.8 19.8
23:45 1011 29.85 840 24.81 -1 30.3 64 -6.9 19.6
23:50 1011 29.85 840 24.81 -0.7 30.8 62 -7.1 19.2
23:55 1011 29.85 840 24.81 -0.9 30.4 62 -7.2 19.1
24:00 1011 29.85 840 24.81 -0.9 30.3 63 -7.2 19